• Join FlightAware (Why Join?)
  • Login
  • US Flag GB Flag 
16:08 EDT


 

Airport Tracker/Info


-or-


 

Live Flight TrackerFlight Track Log ✈ SWA2166 ✈ 11-Apr-2013 ✈ KMSY - KMDW

Flight Track Log - Related Links

Times and Time Zones

All times are in EDT time to prevent confusion due to time zone crossing. See the SWA2166 flight status page for this flight to view local times or setup timezone preferences in your user account.

Time Position Orientation Groundspeed Altitude Reporting Facility
EDT Latitude Longitude Course Direction KTS MPH feet Rate Location/Type
07:53 29.9781 -90.2539 196° South 137 158 1,000  Level Houston Center
07:54 29.9533 -90.2619 196° South 152 175 2,200 1,800 Climbing Houston Center
07:55 29.9381 -90.2675 197° South 174 200 3,000 3,060 Climbing Houston Center
07:55 29.9278 -90.3111 255° West 219 252 5,300 3,240 Climbing Houston Center
07:56 29.9233 -90.3314 256° West 214 246 6,300 2,520 Climbing Houston Center
07:57 29.9631 -90.3953 306° West 260 299 9,100 2,520 Climbing Houston Center
07:58 30.0400 -90.4494 329° Northwest 313 360 11,500 3,060 Climbing Houston Center
07:59 30.1636 -90.4836 347° North 381 438 15,400 3,360 Climbing Houston Center
08:00 30.2711 -90.5108 348° North 390 449 18,400 2,640 Climbing Houston Center
08:01 30.3831 -90.5428 346° North 409 471 20,800 2,400 Climbing Houston Center
08:02 30.5072 -90.5456 359° North 449 517 23,400 2,460 Climbing Houston Center
08:03 30.6308 -90.5342 North 445 512 25,900 2,160 Climbing Houston Center
08:04 30.7581 -90.5236 North 452 520 27,900 1,800 Climbing Houston Center
08:05 30.8864 -90.5128 North 456 525 29,600 1,500 Climbing Houston Center
08:06 31.0181 -90.5008 North 465 535 31,000 1,380 Climbing Houston Center
08:07 31.1531 -90.4886 North 477 549 32,500 1,560 Climbing Houston Center
08:08 31.2900 -90.4753 North 488 562 34,200 1,620 Climbing Houston Center
08:09 31.4231 -90.4650 North 482 555 35,800 1,440 Climbing Houston Center
08:10 31.5556 -90.4528 North 478 550 37,200 1,140 Climbing Houston Center
08:11 31.6869 -90.4403 North 475 547 38,200 840 Climbing Houston Center
08:12 31.8206 -90.4297 North 477 549 39,000 480 Climbing Houston Center
08:12 31.9036 -90.4211 North 474 545 39,000  Level Memphis Center
08:13 32.0372 -90.4114 North 474 545 39,000  Level Memphis Center
08:14 32.1708 -90.3967 North 479 551 39,000  Level Memphis Center
08:15 32.3025 -90.3867 North 474 545 39,000  Level Memphis Center
08:16 32.4339 -90.3722 North 474 545 39,000  Level Memphis Center
08:17 32.5614 -90.3622 North 469 540 39,000  Level Memphis Center
08:18 32.6950 -90.3497 North 469 540 39,000  Level Memphis Center
08:19 32.8264 -90.3400 North 469 540 39,000  Level Memphis Center
08:20 32.9600 -90.3275 North 469 540 39,000  Level Memphis Center
08:21 33.0936 -90.3150 North 475 547 39,000  Level Memphis Center
08:22 33.2272 -90.3000 North 480 552 39,000  Level Memphis Center
08:23 33.3628 -90.2900 North 480 552 39,000  Level Memphis Center
08:24 33.5006 -90.2750 North 480 552 39,000  Level Memphis Center
08:25 33.6364 -90.2500 North 480 552 39,000  Level Memphis Center
08:26 33.7697 -90.2197 11° North 480 552 39,000  Level Memphis Center
08:27 33.9033 -90.1969 North 480 552 39,000  Level Memphis Center
08:28 34.0389 -90.1717 North 490 564 39,000  Level Memphis Center
08:29 34.1747 -90.1464 North 490 564 39,000  Level Memphis Center
08:30 34.3186 -90.1183 North 485 558 39,000  Level Memphis Center
08:31 34.4542 -90.0953 North 485 558 39,000  Level Memphis Center
08:32 34.5875 -90.0694 North 485 558 39,000  Level Memphis Center
08:33 34.7231 -90.0439 North 485 558 39,000  Level Memphis Center
08:34 34.8586 -90.0206 North 485 558 39,000  Level Memphis Center
08:35 34.9839 -89.9972 North 485 558 39,000  Level Memphis Center
08:36 35.0986 -90.0450 341° North 455 524 39,000  Level Memphis Center
08:37 35.1969 -90.1336 324° Northwest 427 491 39,000  Level Memphis Center
08:38 35.2972 -90.2222 324° Northwest 439 505 39,000  Level Memphis Center
08:39 35.3953 -90.3111 324° Northwest 439 505 39,000  Level Memphis Center
08:40 35.5039 -90.4081 324° Northwest 444 511 39,000  Level Memphis Center
08:41 35.6247 -90.4592 341° North 444 511 39,000  Level Memphis Center
08:42 35.7417 -90.4108 19° North 430 495 39,000  Level Memphis Center
08:43 35.8792 -90.3467 21° North 484 557 39,000  Level Memphis Center
08:44 36.0189 -90.2878 19° North 498 573 39,000  Level Memphis Center
08:45 36.1564 -90.2233 21° North 510 587 39,000  Level Memphis Center
08:46 36.2939 -90.1614 20° North 522 601 39,000  Level Memphis Center
08:47 36.4314 -90.1017 19° North 522 601 39,000  Level Memphis Center
08:48 36.5689 -90.0339 22° Northeast 527 606 39,000  Level Memphis Center
08:49 36.7083 -89.9739 19° North 527 606 39,000 -300 Level Memphis Center
08:51 36.9083 -89.8747 22° Northeast 532 612 38,300 -420 Descending Kansas City Center
08:52 37.0486 -89.8100 20° North 533 613 38,000 -180 Descending Kansas City Center
08:53 37.2167 -89.7308 21° North 534 615 38,000  Level Kansas City Center
08:54 37.3556 -89.6653 21° North 532 612 38,000  Level Kansas City Center
08:55 37.4975 -89.6156 16° North 529 609 38,000  Level Kansas City Center
08:56 37.6431 -89.5828 10° North 527 606 38,000  Level Kansas City Center
08:57 37.7864 -89.5450 12° North 527 606 38,000  Level Kansas City Center
08:58 37.9422 -89.5047 12° North 528 608 38,000  Level Kansas City Center
08:59 38.0864 -89.4689 11° North 528 608 38,000  Level Kansas City Center
09:00 38.2417 -89.4278 12° North 530 610 38,000 -240 Level Kansas City Center
09:01 38.3853 -89.3911 11° North 528 608 37,600 -660 Descending Kansas City Center
09:02 38.5303 -89.3528 12° North 533 613 36,700 -960 Descending Kansas City Center
09:03 38.6875 -89.3108 12° North 538 619 35,700 -960 Descending Kansas City Center
09:04 38.8347 -89.2725 11° North 541 623 34,800 -1,560 Descending Kansas City Center
09:05 38.9803 -89.2339 12° North 538 619 32,500 -1,920 Descending Kansas City Center
09:06 39.1392 -89.1908 12° North 541 623 31,000 -780 Descending Kansas City Center
09:07 39.2681 -89.1567 12° North 545 627 31,000  Level Kansas City Center
09:08 39.4239 -89.1156 12° North 549 632 31,000 -360 Level Kansas City Center
09:09 39.5722 -89.0750 12° North 548 631 30,300 -840 Descending Kansas City Center
09:10 39.7208 -89.0358 11° North 546 628 29,300 -660 Descending Kansas City Center
09:11 39.8992 -88.9867 12° North 547 629 29,000 -360 Descending Kansas City Center
09:12 40.0481 -88.9458 12° North 548 631 28,600 -1,140 Descending Kansas City Center
09:14 40.1878 -88.9089 11° North 526 605 26,600 -2,340 Descending Chicago Center
09:15 40.3550 -88.8619 12° North 514 592 23,600 -2,460 Descending Chicago Center
09:16 40.4761 -88.8286 12° North 494 568 21,600 -1,920 Descending Chicago Center
09:17 40.5967 -88.7950 12° North 449 517 19,700 -2,100 Descending Chicago Center
09:18 40.7150 -88.7633 11° North 435 501 17,400 -1,380 Descending Chicago Center
09:19 40.8447 -88.7125 17° North 410 472 16,900 -360 Descending Chicago Center
09:20 40.9447 -88.6539 24° Northeast 395 455 16,700 -840 Descending Chicago Center
09:21 41.0453 -88.5992 22° Northeast 391 450 15,300 -2,280 Descending Chicago Center
09:22 41.1428 -88.5439 23° Northeast 382 440 12,100 -2,760 Descending Chicago Center
09:23 41.2439 -88.4867 23° Northeast 391 450 9,700 -1,740 Descending Chicago Center
09:24 41.3175 -88.4208 34° Northeast 332 382 8,600 -1,260 Descending Chicago Center
09:25 41.3747 -88.3319 49° Northeast 317 365 7,100 -1,380 Descending Chicago Center
09:26 41.4308 -88.2469 49° Northeast 307 353 5,800 -1,080 Descending Chicago Center
09:27 41.4964 -88.1467 49° Northeast 296 341 5,000 -420 Descending Chicago Center
09:28 41.5511 -88.0636 49° Northeast 292 336 5,000  Level Chicago Center
09:29 41.6050 -87.9811 49° Northeast 294 338 5,000 -540 Level Chicago Center
09:30 41.6583 -87.9117 44° Northeast 276 318 4,000 -1,140 Descending Chicago Center
09:31 41.7089 -87.8489 43° Northeast 263 303 2,700 -1,440 Descending Chicago Center
09:31 41.7167 -87.8333 56° Northeast 206 237 2,200 -1,080 Descending Chicago TRACON
09:32 41.7500 -87.7833 48° Northeast 143 165 1,400 -840 Descending Chicago TRACON
09:35 41.7833 -87.7500 42° Northeast  Level FlightAware Approximate